Time;durP1;ratioP1;P1;durP2;ratioP2;P2;SDS_P1;SDS_P2;PMS_P1;PMS_P2;Temp;Humidity;BMP_temperature;BMP_pressure;BME280_temperature;BME280_humidity;BME280_pressure;Samples;Min_cycle;Max_cycle;Signal;HPM_P1;HPM_P2
2024/04/09 00:01:08;;;;;;;19.77;6.13;;;;;;;21.87;41.82;98981.69;10997846;26;20447;-65
2024/04/09 00:06:15;;;;;;;19.75;5.70;;;;;;;21.83;41.92;98983.22;10992501;26;20005;-65
2024/04/09 00:11:21;;;;;;;15.82;4.72;;;;;;;21.78;42.92;98965.97;11009884;26;20023;-63
2024/04/09 00:16:25;;;;;;;17.75;6.30;;;;;;;21.75;42.81;98955.59;11027036;26;20009;-65
2024/04/09 00:21:31;;;;;;;20.33;5.28;;;;;;;21.70;43.67;98948.16;10992615;26;20008;-64
2024/04/09 00:26:32;;;;;;;14.70;5.22;;;;;;;21.70;42.93;98950.88;10986895;26;20016;-65
2024/04/09 00:31:41;;;;;;;14.90;5.40;;;;;;;21.65;43.13;98950.75;10981909;26;20428;-63
2024/04/09 00:36:43;;;;;;;22.90;6.68;;;;;;;21.58;43.08;98952.69;11013434;26;20468;-62
2024/04/09 00:41:45;;;;;;;18.35;6.32;;;;;;;21.61;43.39;98963.06;11040170;26;20055;-63
2024/04/09 00:46:47;;;;;;;18.70;4.68;;;;;;;21.57;43.77;98954.56;10986790;26;20114;-63
2024/04/09 00:51:52;;;;;;;19.00;5.13;;;;;;;21.52;43.67;98944.41;11002438;26;20000;-62
2024/04/09 00:56:56;;;;;;;17.52;6.40;;;;;;;21.48;43.78;98939.66;10998349;26;20084;-64
2024/04/09 01:02:00;;;;;;;14.00;4.78;;;;;;;21.41;44.19;98941.59;11021125;26;20005;-63
2024/04/09 01:07:02;;;;;;;15.82;5.18;;;;;;;21.39;44.16;98946.44;10992905;26;20052;-64
2024/04/09 01:12:03;;;;;;;18.48;5.00;;;;;;;21.35;44.97;98956.91;10999348;26;20481;-63
2024/04/09 01:17:05;;;;;;;16.08;5.32;;;;;;;21.31;45.65;98961.09;11002312;26;20004;-63
2024/04/09 01:22:07;;;;;;;17.33;5.03;;;;;;;21.28;45.81;98961.53;11054131;26;19997;-63
2024/04/09 01:27:14;;;;;;;13.45;5.82;;;;;;;21.22;45.40;98965.16;11003065;26;20004;-62
2024/04/09 01:32:17;;;;;;;19.65;5.95;;;;;;;21.14;45.19;98955.47;11004035;26;20004;-64
2024/04/09 01:37:19;;;;;;;21.10;5.35;;;;;;;21.09;46.01;98948.03;10994754;26;20016;-64
2024/04/09 01:42:20;;;;;;;21.80;6.07;;;;;;;21.05;45.85;98946.81;11020180;26;20005;-62
2024/04/09 01:47:22;;;;;;;14.60;5.00;;;;;;;21.00;45.63;98949.34;10985502;26;20108;-63
2024/04/09 01:52:25;;;;;;;19.17;4.93;;;;;;;20.96;46.41;98953.56;11005949;26;20816;-62
2024/04/09 01:57:31;;;;;;;16.88;4.55;;;;;;;20.93;46.56;98956.72;10996500;26;20016;-64
2024/04/09 02:02:34;;;;;;;17.30;5.28;;;;;;;20.87;47.00;98952.16;10998393;26;20028;-65
2024/04/09 02:07:35;;;;;;;16.70;6.35;;;;;;;20.79;47.27;98953.28;10993202;26;20030;-64
2024/04/09 02:12:38;;;;;;;25.45;7.95;;;;;;;20.75;47.26;98969.13;10998118;26;20068;-63
2024/04/09 02:17:40;;;;;;;17.63;6.33;;;;;;;20.75;47.84;98969.13;11002832;26;20750;-63
2024/04/09 02:22:42;;;;;;;19.75;5.38;;;;;;;20.72;47.92;98958.75;11000313;26;20768;-62
2024/04/09 02:27:43;;;;;;;16.30;5.55;;;;;;;20.70;47.96;98968.94;11003135;26;20030;-63
2024/04/09 02:32:48;;;;;;;18.70;4.97;;;;;;;20.65;47.64;98963.34;11008237;26;20004;-65
2024/04/09 02:37:49;;;;;;;15.73;5.55;;;;;;;20.63;47.88;98971.69;11009524;26;20692;-63
2024/04/09 02:42:51;;;;;;;16.75;6.45;;;;;;;20.63;48.38;98976.28;11000304;26;20016;-64
2024/04/09 02:47:53;;;;;;;13.80;4.68;;;;;;;20.63;48.03;98984.38;10946781;26;20788;-65
2024/04/09 02:52:55;;;;;;;19.80;6.93;;;;;;;20.61;48.21;98983.75;10987346;26;20703;-65
2024/04/09 02:57:56;;;;;;;20.88;7.20;;;;;;;20.60;48.47;98992.94;10987390;26;20061;-63
2024/04/09 03:02:58;;;;;;;16.40;5.53;;;;;;;20.50;48.92;99001.53;10989879;26;20862;-64
2024/04/09 03:07:59;;;;;;;17.52;6.07;;;;;;;20.35;49.14;98982.91;10988303;26;20730;-63
2024/04/09 03:13:01;;;;;;;16.63;5.45;;;;;;;20.46;49.17;98993.03;10994209;26;20016;-64
2024/04/09 03:18:03;;;;;;;16.38;6.47;;;;;;;20.43;49.29;98993.47;10958678;26;20056;-63
2024/04/09 03:23:05;;;;;;;17.98;5.80;;;;;;;20.44;49.79;98988.88;10994789;26;20019;-64
2024/04/09 03:28:06;;;;;;;22.38;7.30;;;;;;;20.45;49.55;98995.97;11016290;26;20001;-63
2024/04/09 03:33:08;;;;;;;18.45;6.47;;;;;;;20.38;50.13;98990.56;10984206;26;20004;-64
2024/04/09 03:38:10;;;;;;;16.27;5.15;;;;;;;20.39;49.96;99003.06;10988581;26;20016;-63
2024/04/09 03:43:13;;;;;;;11.35;5.13;;;;;;;20.34;50.24;98999.34;10997058;26;20055;-63
2024/04/09 03:48:14;;;;;;;19.67;4.73;;;;;;;20.30;50.33;99016.00;10988453;26;20032;-64
2024/04/09 03:53:16;;;;;;;17.75;4.47;;;;;;;20.23;50.41;99027.88;11043945;26;20132;-63
2024/04/09 03:58:17;;;;;;;18.17;5.93;;;;;;;20.22;50.73;99040.56;11030429;26;20012;-63
2024/04/09 04:03:19;;;;;;;19.73;4.95;;;;;;;20.22;50.34;99050.53;10970656;26;20198;-64
2024/04/09 04:08:23;;;;;;;17.63;6.18;;;;;;;20.14;50.90;99033.53;10958580;26;20372;-62
2024/04/09 04:13:25;;;;;;;;;;;;;;;20.12;50.23;99041.03;11004309;26;20080;-63
2024/04/09 04:18:37;;;;;;;19.23;4.80;;;;;;;20.09;50.04;99038.75;10993904;26;19925;-64
2024/04/09 04:23:42;;;;;;;11.38;4.53;;;;;;;20.10;48.38;99062.03;11001672;26;20448;-63
2024/04/09 04:28:45;;;;;;;12.32;4.10;;;;;;;20.06;47.93;99052.69;11002564;26;20420;-63
2024/04/09 04:33:49;;;;;;;13.10;3.80;;;;;;;20.07;47.54;99053.50;11001816;26;20798;-63
2024/04/09 04:38:52;;;;;;;15.88;4.43;;;;;;;20.00;47.38;99058.97;11005540;26;20591;-63
2024/04/09 04:43:55;;;;;;;10.85;4.20;;;;;;;20.12;47.74;99062.63;10980153;26;20181;-63
2024/04/09 04:48:58;;;;;;;14.43;4.38;;;;;;;20.09;47.47;99081.97;11007967;26;20897;-63
2024/04/09 04:53:59;;;;;;;11.55;4.28;;;;;;;20.07;47.20;99086.78;11000629;26;20005;-63
2024/04/09 04:59:01;;;;;;;16.38;3.70;;;;;;;20.13;47.46;99104.81;10979828;26;20019;-62
2024/04/09 05:04:03;;;;;;;11.10;3.78;;;;;;;20.11;47.40;99108.78;11064318;26;20013;-64
2024/04/09 05:09:07;;;;;;;15.68;4.38;;;;;;;20.13;46.91;99122.88;11013773;26;20050;-63
2024/04/09 05:14:10;;;;;;;14.13;4.07;;;;;;;20.14;47.04;99122.69;11045713;26;20024;-62
2024/04/09 05:19:11;;;;;;;11.52;3.85;;;;;;;20.12;46.79;99132.88;11020720;26;20019;-63
2024/04/09 05:24:14;;;;;;;19.02;4.10;;;;;;;20.16;46.78;99138.66;11011017;26;21081;-62
2024/04/09 05:29:16;;;;;;;15.90;4.10;;;;;;;20.21;46.24;99146.16;11005028;26;20020;-63
2024/04/09 05:34:17;;;;;;;12.95;3.28;;;;;;;20.21;46.16;99146.16;11000625;26;20644;-62
2024/04/09 05:39:20;;;;;;;15.93;3.63;;;;;;;20.16;45.44;99154.06;10961070;26;20013;-64
2024/04/09 05:44:24;;;;;;;14.95;4.13;;;;;;;20.14;46.05;99157.78;11009319;26;20060;-64
2024/04/09 05:49:26;;;;;;;12.93;4.65;;;;;;;20.21;46.26;99178.56;11017032;26;20151;-64
2024/04/09 05:54:28;;;;;;;9.50;2.47;;;;;;;19.99;46.25;99153.69;11087546;26;20013;-66
2024/04/09 05:59:30;;;;;;;8.15;2.42;;;;;;;20.13;46.08;99193.97;11023412;26;20019;-63
2024/04/09 06:04:31;;;;;;;9.02;2.17;;;;;;;20.09;46.64;99195.44;11008675;26;20005;-65
2024/04/09 06:09:34;;;;;;;11.48;2.20;;;;;;;20.05;46.75;99194.19;10991592;26;20013;-63
2024/04/09 06:14:37;;;;;;;7.43;2.60;;;;;;;20.09;46.79;99214.34;11057079;26;20093;-64
2024/04/09 06:19:40;;;;;;;;;;;;;;;20.02;47.57;99223.50;11062412;26;20004;-64
2024/04/09 06:24:43;;;;;;;7.45;2.60;;;;;;;19.98;47.57;99227.66;11058287;26;20652;-63
2024/04/09 06:29:50;;;;;;;8.20;1.67;;;;;;;19.87;48.39;99243.44;11039695;26;20084;-63
2024/04/09 06:34:52;;;;;;;9.27;1.83;;;;;;;19.82;48.94;99250.53;11065018;26;21248;-64
2024/04/09 06:39:54;;;;;;;10.23;2.57;;;;;;;19.88;49.04;99255.91;11062640;26;20056;-64
2024/04/09 06:44:55;;;;;;;8.45;2.40;;;;;;;19.75;49.77;99275.59;11064362;26;20016;-63
2024/04/09 06:49:58;;;;;;;10.30;1.80;;;;;;;19.75;50.21;99272.91;11038977;26;20023;-63
2024/04/09 06:55:00;;;;;;;5.50;1.27;;;;;;;19.68;50.99;99285.59;11061395;26;20023;-63
2024/04/09 07:00:03;;;;;;;8.20;1.55;;;;;;;19.52;52.24;99300.31;11091991;26;20012;-64
2024/04/09 07:05:06;;;;;;;8.93;3.22;;;;;;;19.67;52.17;99310.91;11061609;26;20488;-65
2024/04/09 07:10:13;;;;;;;8.77;1.65;;;;;;;19.65;52.52;99337.31;11064548;26;20008;-64
2024/04/09 07:15:14;;;;;;;3.23;0.90;;;;;;;19.55;54.52;99353.06;11058528;26;20020;-66
2024/04/09 07:20:16;;;;;;;2.88;0.50;;;;;;;19.59;54.54;99370.47;11051972;26;20020;-65
2024/04/09 07:25:19;;;;;;;;;;;;;;;19.56;55.60;99370.88;11062810;26;20115;-63
2024/04/09 07:30:22;;;;;;;5.45;1.50;;;;;;;19.55;56.61;99370.06;11032212;26;20384;-63
2024/04/09 07:35:23;;;;;;;5.90;0.90;;;;;;;19.80;56.25;99393.81;11062433;26;20043;-64
2024/04/09 07:40:25;;;;;;;3.45;0.73;;;;;;;19.99;56.43;99408.41;11080711;26;20425;-64
2024/04/09 07:45:26;;;;;;;4.50;0.88;;;;;;;19.92;56.50;99408.41;11064507;26;20023;-64
2024/04/09 07:50:28;;;;;;;3.88;0.60;;;;;;;19.94;55.98;99405.50;11086970;26;20785;-66
2024/04/09 07:55:30;;;;;;;1.50;0.50;;;;;;;19.76;56.45;99423.06;11055728;26;20011;-68
2024/04/09 08:00:31;;;;;;;3.08;0.50;;;;;;;19.78;56.35;99456.13;11090740;26;20008;-65
2024/04/09 08:05:34;;;;;;;2.63;0.98;;;;;;;19.45;55.60;99438.97;11064922;26;20004;-64
2024/04/09 08:10:38;;;;;;;3.25;0.30;;;;;;;19.59;54.63;99452.31;11058645;26;20067;-63
2024/04/09 08:15:40;;;;;;;0.40;0.10;;;;;;;19.39;53.29;99473.81;11033929;26;20004;-64
2024/04/09 08:20:42;;;;;;;4.53;0.20;;;;;;;19.48;53.34;99492.53;11080264;26;20313;-64
2024/04/09 08:25:44;;;;;;;2.38;0.38;;;;;;;19.22;53.66;99518.34;11060648;26;20019;-63
2024/04/09 08:30:46;;;;;;;2.38;0.25;;;;;;;19.30;53.82;99539.75;11026009;26;20638;-64
2024/04/09 08:35:48;;;;;;;7.07;0.60;;;;;;;18.70;54.34;99544.66;11077370;26;20005;-62
2024/04/09 08:40:50;;;;;;;5.15;0.45;;;;;;;18.41;53.56;99564.50;11054894;26;21518;-63
2024/04/09 08:45:51;;;;;;;7.10;0.40;;;;;;;18.37;52.91;99594.53;11054345;26;20626;-64
2024/04/09 08:50:56;;;;;;;3.45;0.30;;;;;;;18.08;53.53;99613.44;11030077;26;20486;-65
2024/04/09 08:56:00;;;;;;;1.50;0.20;;;;;;;17.73;51.51;99619.38;11002841;26;20016;-64
2024/04/09 09:01:04;;;;;;;2.65;0.15;;;;;;;17.58;50.96;99642.75;11002781;26;20032;-63
2024/04/09 09:06:05;;;;;;;2.35;0.40;;;;;;;17.28;50.74;99637.34;11040424;26;20007;-63
2024/04/09 09:11:11;;;;;;;1.27;0.10;;;;;;;17.23;51.25;99658.53;11007544;26;20012;-65
2024/04/09 09:16:12;;;;;;;2.63;0.17;;;;;;;17.19;50.75;99655.41;11004859;26;20967;-63
2024/04/09 09:21:16;;;;;;;1.65;0.30;;;;;;;17.13;47.91;99672.25;11011413;26;20140;-63
2024/04/09 09:26:23;;;;;;;1.70;0.10;;;;;;;16.68;48.08;99684.59;11011176;26;20028;-64
2024/04/09 09:31:24;;;;;;;1.92;0.25;;;;;;;16.88;48.24;99702.00;11005095;26;20015;-64
2024/04/09 09:36:27;;;;;;;3.08;0.10;;;;;;;16.80;47.76;99723.53;11006446;26;20008;-64
2024/04/09 09:41:31;;;;;;;1.08;0.10;;;;;;;16.70;48.13;99753.28;11020996;26;20003;-63
2024/04/09 09:46:34;;;;;;;3.28;0.20;;;;;;;16.70;48.64;99760.53;11007564;26;20016;-64
2024/04/09 09:51:35;;;;;;;3.70;0.20;;;;;;;16.72;49.62;99771.94;11002116;26;20100;-63
2024/04/09 09:56:39;;;;;;;4.28;0.30;;;;;;;16.95;48.59;99772.84;11019137;26;20017;-64
2024/04/09 10:01:48;;;;;;;1.20;0.28;;;;;;;16.56;47.89;99789.81;11005493;26;20032;-64
2024/04/09 10:06:55;;;;;;;2.78;0.20;;;;;;;16.37;46.62;99779.47;11084903;26;20031;-64
2024/04/09 10:11:56;;;;;;;2.47;0.35;;;;;;;16.31;46.80;99798.97;11041275;26;20039;-63
2024/04/09 10:17:10;;;;;;;3.05;0.50;;;;;;;16.39;46.48;99823.09;11061501;26;20521;-64
2024/04/09 10:22:15;;;;;;;0.50;0.13;;;;;;;16.10;48.53;99856.72;11090739;26;20012;-64
2024/04/09 10:27:19;;;;;;;1.83;0.73;;;;;;;15.96;47.34;99868.13;11017168;26;20244;-64
2024/04/09 10:32:24;;;;;;;5.53;0.50;;;;;;;15.86;47.13;99858.41;10998277;26;20022;-64
2024/04/09 10:37:27;;;;;;;1.40;0.25;;;;;;;15.92;47.15;99877.53;11026402;26;20005;-64
2024/04/09 10:42:31;;;;;;;2.15;0.13;;;;;;;15.62;47.42;99871.78;10985955;26;20106;-64
2024/04/09 10:47:33;;;;;;;1.95;0.25;;;;;;;15.84;47.63;99876.53;10996381;26;20060;-64
2024/04/09 10:52:35;;;;;;;2.10;0.38;;;;;;;15.72;46.98;99904.66;11043839;26;20007;-65
2024/04/09 10:57:38;;;;;;;3.55;0.50;;;;;;;15.26;46.16;99904.22;10999714;26;20004;-64
2024/04/09 11:02:43;;;;;;;3.22;0.40;;;;;;;15.22;47.01;99924.28;11063211;26;20095;-63
2024/04/09 11:07:46;;;;;;;;;;;;;;;15.05;46.55;99926.91;10998968;26;20016;-65
2024/04/09 11:12:52;;;;;;;2.28;0.30;;;;;;;14.93;47.31;99929.03;11043166;26;20182;-63
2024/04/09 11:17:54;;;;;;;3.05;0.43;;;;;;;14.83;47.58;99905.03;11015126;26;20019;-64
2024/04/09 11:22:56;;;;;;;3.67;0.40;;;;;;;15.07;47.75;99916.84;10997216;26;20001;-63
2024/04/09 11:27:57;;;;;;;1.77;0.30;;;;;;;14.57;48.81;99893.47;10997086;26;20838;-61
2024/04/09 11:32:59;;;;;;;4.40;0.70;;;;;;;14.74;49.67;99927.44;11005739;26;20008;-62
2024/04/09 11:38:01;;;;;;;3.20;0.60;;;;;;;14.55;50.19;99933.81;11005536;26;20076;-61
2024/04/09 11:43:04;;;;;;;4.10;0.95;;;;;;;14.42;51.13;99942.22;11006528;26;20020;-64
2024/04/09 11:48:07;;;;;;;4.78;0.63;;;;;;;14.43;51.13;99919.00;11018051;26;20009;-62
2024/04/09 11:53:09;;;;;;;3.33;0.60;;;;;;;14.41;51.33;99948.59;11006972;26;20001;-64
2024/04/09 11:58:12;;;;;;;4.93;0.57;;;;;;;14.12;51.26;99948.84;10995698;26;20001;-63
2024/04/09 12:03:14;;;;;;;2.72;0.40;;;;;;;14.14;50.41;99969.13;11007205;26;20022;-63
2024/04/09 12:08:16;;;;;;;3.92;0.77;;;;;;;14.15;50.13;99965.44;10999035;26;20012;-64
2024/04/09 12:13:18;;;;;;;2.65;0.55;;;;;;;14.20;49.79;99985.56;11033709;26;20045;-63
2024/04/09 12:18:19;;;;;;;4.55;0.63;;;;;;;14.13;50.38;99996.88;11043672;26;20023;-63
2024/04/09 12:23:21;;;;;;;2.63;1.15;;;;;;;14.17;50.71;100009.97;11045843;26;20004;-64
2024/04/09 12:28:23;;;;;;;3.90;0.82;;;;;;;13.93;52.15;100014.06;11003685;26;20078;-63
2024/04/09 12:33:24;;;;;;;3.65;0.80;;;;;;;13.85;52.35;100022.00;11042773;26;20028;-64
2024/04/09 12:38:26;;;;;;;3.22;0.82;;;;;;;13.89;52.00;100018.06;11003156;26;20080;-65
2024/04/09 12:43:28;;;;;;;2.15;0.75;;;;;;;14.13;52.34;100031.69;11006200;26;20558;-64
2024/04/09 12:48:29;;;;;;;2.33;1.05;;;;;;;13.99;52.88;100047.41;11033544;26;20004;-64
2024/04/09 12:53:31;;;;;;;3.88;1.13;;;;;;;13.97;53.16;100047.56;11018504;26;20031;-62
2024/04/09 12:58:33;;;;;;;3.35;0.90;;;;;;;13.82;54.08;100038.38;11020051;26;20073;-63
2024/04/09 13:03:39;;;;;;;4.15;1.20;;;;;;;13.85;55.59;100054.13;11043415;26;20005;-62
2024/04/09 13:08:42;;;;;;;2.20;0.60;;;;;;;13.85;55.52;100060.31;11023723;26;20057;-65
2024/04/09 13:13:44;;;;;;;8.27;1.02;;;;;;;13.71;55.61;100037.56;11082676;26;20004;-63
2024/04/09 13:18:47;;;;;;;4.25;0.52;;;;;;;13.72;54.96;100066.03;11063493;26;20007;-63
2024/04/09 13:23:49;;;;;;;2.88;0.38;;;;;;;13.66;55.20;100068.44;11013446;26;20028;-64
2024/04/09 13:28:51;;;;;;;1.33;0.30;;;;;;;13.74;55.61;100080.06;11007932;26;20227;-62
2024/04/09 13:33:52;;;;;;;1.95;0.40;;;;;;;13.46;56.27;100065.84;11008473;26;20611;-63
2024/04/09 13:38:54;;;;;;;1.23;0.45;;;;;;;13.52;56.40;100070.59;10998998;26;20009;-63
2024/04/09 13:43:56;;;;;;;5.57;0.70;;;;;;;13.82;57.30;100073.97;11006843;26;20009;-62
2024/04/09 13:48:58;;;;;;;3.72;1.10;;;;;;;13.84;56.79;100057.78;11001670;26;20032;-63
2024/04/09 13:54:00;;;;;;;3.17;0.50;;;;;;;13.73;56.90;100067.69;11016147;26;20051;-64
2024/04/09 13:59:02;;;;;;;2.97;0.73;;;;;;;13.71;56.71;100069.69;11010423;26;20009;-63
2024/04/09 14:04:03;;;;;;;3.38;0.77;;;;;;;13.66;57.20;100066.63;11002857;26;20013;-63
2024/04/09 14:09:08;;;;;;;3.53;0.80;;;;;;;13.65;57.30;100062.25;11024289;26;20035;-63
2024/04/09 14:14:10;;;;;;;2.38;0.57;;;;;;;13.67;57.11;100070.94;11026224;26;20021;-64
2024/04/09 14:19:13;;;;;;;2.85;0.70;;;;;;;13.79;56.56;100071.59;10998598;26;20009;-63
2024/04/09 14:24:15;;;;;;;1.98;1.00;;;;;;;13.85;56.96;100052.28;11003885;26;20024;-63
2024/04/09 14:29:16;;;;;;;1.67;0.43;;;;;;;13.90;56.46;100070.56;11011933;26;20443;-64
2024/04/09 14:34:19;;;;;;;1.52;0.55;;;;;;;13.76;57.19;100072.72;11003279;26;20052;-65
2024/04/09 14:39:21;;;;;;;2.45;0.60;;;;;;;13.86;57.29;100074.53;10999471;26;20012;-64
2024/04/09 14:44:22;;;;;;;2.80;0.90;;;;;;;14.06;56.79;100089.47;10997456;26;20072;-63
2024/04/09 14:49:26;;;;;;;2.55;0.60;;;;;;;13.65;57.41;100080.13;11020422;26;20050;-63
2024/04/09 14:54:29;;;;;;;4.53;1.45;;;;;;;13.70;57.78;100105.44;11002739;26;20019;-64
2024/04/09 14:59:34;;;;;;;1.60;0.82;;;;;;;13.78;57.72;100113.56;10997904;26;20019;-64
2024/04/09 15:04:36;;;;;;;2.58;0.70;;;;;;;14.02;56.91;100109.53;11037066;26;20004;-64
2024/04/09 15:09:38;;;;;;;2.55;0.80;;;;;;;13.79;57.21;100117.91;10998792;26;20001;-65
2024/04/09 15:14:40;;;;;;;3.28;0.90;;;;;;;13.73;57.86;100115.00;10992158;26;20020;-64
2024/04/09 15:19:42;;;;;;;1.63;0.70;;;;;;;13.86;57.65;100123.53;11016536;26;20058;-64
2024/04/09 15:24:43;;;;;;;3.25;0.88;;;;;;;13.70;58.21;100116.13;11023463;26;20293;-64
2024/04/09 15:29:45;;;;;;;3.45;1.17;;;;;;;13.62;58.18;100116.03;10960137;26;20008;-64
2024/04/09 15:34:47;;;;;;;4.90;0.90;;;;;;;13.70;58.29;100102.75;11056921;26;20617;-64
2024/04/09 15:39:49;;;;;;;3.10;0.88;;;;;;;13.71;57.84;100101.78;10998186;26;20090;-62
2024/04/09 15:44:52;;;;;;;3.60;0.85;;;;;;;13.77;58.17;100119.91;10979750;26;20093;-64
2024/04/09 15:49:53;;;;;;;4.57;0.90;;;;;;;13.73;57.85;100120.34;10992513;26;20024;-62
2024/04/09 15:54:57;;;;;;;1.80;0.77;;;;;;;13.71;57.70;100141.06;11011669;26;20869;-62
2024/04/09 16:00:04;;;;;;;2.85;0.50;;;;;;;13.94;58.99;100134.31;11052061;26;20024;-66
2024/04/09 16:05:09;;;;;;;4.30;1.05;;;;;;;14.11;58.39;100140.75;10971064;26;20004;-65
2024/04/09 16:10:12;;;;;;;4.55;0.95;;;;;;;14.35;57.62;100138.47;10990282;26;20015;-67
2024/04/09 16:15:14;;;;;;;5.68;1.08;;;;;;;14.25;56.59;100147.41;11024978;26;20887;-66
2024/04/09 16:20:16;;;;;;;3.65;1.42;;;;;;;14.04;56.53;100142.31;11067235;26;20072;-64
2024/04/09 16:25:19;;;;;;;3.63;0.93;;;;;;;13.98;56.97;100142.91;11008273;26;20077;-62
2024/04/09 16:30:25;;;;;;;5.07;1.20;;;;;;;13.96;57.08;100147.56;11008426;26;20099;-65
2024/04/09 16:35:26;;;;;;;2.30;0.93;;;;;;;13.91;57.31;100168.56;11042329;26;20965;-62
2024/04/09 16:40:28;;;;;;;4.32;1.20;;;;;;;13.55;58.36;100144.34;11071159;26;20000;-64
2024/04/09 16:45:29;;;;;;;2.35;1.33;;;;;;;13.60;58.96;100180.38;11024424;26;20013;-63
2024/04/09 16:50:33;;;;;;;2.67;1.15;;;;;;;13.62;58.91;100198.94;11005793;26;20016;-64
2024/04/09 16:55:34;;;;;;;3.58;1.27;;;;;;;13.51;59.27;100196.44;11049915;26;20023;-62
2024/04/09 17:00:36;;;;;;;3.10;0.90;;;;;;;13.67;59.71;100206.53;11012234;26;20095;-62
2024/04/09 17:05:37;;;;;;;4.55;1.00;;;;;;;13.68;58.53;100184.16;11009488;26;20017;-62
2024/04/09 17:10:39;;;;;;;3.38;0.98;;;;;;;13.66;59.09;100199.50;11044951;26;20012;-63
2024/04/09 17:15:41;;;;;;;6.22;1.15;;;;;;;13.72;59.01;100215.81;11016087;26;20370;-63
2024/04/09 17:20:43;;;;;;;3.05;1.13;;;;;;;13.66;59.14;100216.41;10995872;26;20023;-63
2024/04/09 17:25:46;;;;;;;2.22;0.90;;;;;;;13.44;59.67;100199.69;11079329;26;20477;-64
2024/04/09 17:30:54;;;;;;;2.33;1.50;;;;;;;13.59;59.37;100212.59;11020579;26;20009;-63
2024/04/09 17:35:56;;;;;;;5.55;1.10;;;;;;;13.60;59.48;100211.59;11062212;26;20120;-64
2024/04/09 17:40:58;;;;;;;5.80;1.30;;;;;;;13.63;59.69;100248.78;11070222;26;20017;-63
2024/04/09 17:46:02;;;;;;;5.38;1.83;;;;;;;13.60;59.86;100241.88;11015716;26;20024;-65
2024/04/09 17:51:07;;;;;;;4.57;1.15;;;;;;;13.57;60.61;100258.22;11088530;26;20024;-63
2024/04/09 17:56:09;;;;;;;4.28;1.10;;;;;;;13.46;60.33;100268.22;11079731;26;20835;-63
2024/04/09 18:01:12;;;;;;;3.88;1.40;;;;;;;13.59;60.11;100274.13;11023823;26;20335;-62
2024/04/09 18:06:26;;;;;;;5.15;1.00;;;;;;;13.44;59.24;100249.66;11068272;26;20431;-63
2024/04/09 18:11:28;;;;;;;2.10;0.95;;;;;;;13.54;59.16;100273.69;11056026;26;20020;-63
2024/04/09 18:16:30;;;;;;;4.57;1.27;;;;;;;13.59;59.06;100287.50;11072194;26;20024;-64
2024/04/09 18:21:32;;;;;;;4.20;0.90;;;;;;;13.62;58.71;100305.94;11063424;26;20489;-64
2024/04/09 18:26:33;;;;;;;4.60;1.13;;;;;;;13.57;58.61;100292.13;11064172;26;20009;-64
2024/04/09 18:31:35;;;;;;;5.13;1.83;;;;;;;13.50;58.67;100315.09;11069244;26;20008;-62
2024/04/09 18:36:37;;;;;;;4.68;1.00;;;;;;;13.30;59.79;100317.72;11001854;26;20021;-64
2024/04/09 18:41:40;;;;;;;2.50;0.90;;;;;;;13.19;59.82;100307.16;11033293;26;20475;-63
2024/04/09 18:46:41;;;;;;;4.75;1.23;;;;;;;13.19;60.08;100323.19;11013291;26;20015;-62
2024/04/09 18:51:44;;;;;;;3.08;1.10;;;;;;;13.13;61.08;100339.78;11046058;26;20027;-63
2024/04/09 18:56:46;;;;;;;3.50;1.37;;;;;;;13.16;60.74;100366.22;11000551;26;20068;-63
2024/04/09 19:01:48;;;;;;;4.32;0.80;;;;;;;13.04;61.55;100371.69;11017066;26;20024;-63
2024/04/09 19:06:50;;;;;;;3.80;0.85;;;;;;;12.99;62.07;100394.47;11078519;26;20068;-62
2024/04/09 19:11:52;;;;;;;3.33;0.95;;;;;;;12.94;62.60;100396.69;11066899;26;20513;-63
2024/04/09 19:16:53;;;;;;;6.93;2.00;;;;;;;12.88;63.09;100417.63;11067519;26;20008;-65
2024/04/09 19:21:57;;;;;;;2.92;1.02;;;;;;;12.86;63.33;100405.38;11085066;26;20366;-64
2024/04/09 19:26:58;;;;;;;2.88;0.55;;;;;;;12.79;63.56;100425.59;11080201;26;21077;-65
2024/04/09 19:32:05;;;;;;;2.10;0.80;;;;;;;12.84;63.73;100418.88;10992664;26;20083;-62
2024/04/09 19:37:08;;;;;;;2.80;0.98;;;;;;;12.84;64.17;100423.38;11024996;26;20004;-62
2024/04/09 19:42:11;;;;;;;3.00;1.00;;;;;;;12.85;64.07;100446.41;11090127;26;20887;-65
2024/04/09 19:47:16;;;;;;;;;;;;;;;12.71;64.68;100450.28;11067072;26;20062;-65
2024/04/09 19:52:18;;;;;;;2.73;1.43;;;;;;;12.60;65.06;100432.53;11088448;26;19926;-62
2024/04/09 19:57:23;;;;;;;3.10;1.27;;;;;;;12.58;65.49;100449.66;11090038;26;20033;-64
2024/04/09 20:02:24;;;;;;;;;;;;;;;12.68;65.22;100445.22;11064946;26;20020;-62
2024/04/09 20:07:26;;;;;;;2.20;1.13;;;;;;;12.58;65.32;100444.31;11075580;26;20001;-62
2024/04/09 20:12:30;;;;;;;3.00;1.25;;;;;;;12.37;65.98;100432.69;11060515;26;20015;-63
2024/04/09 20:17:31;;;;;;;5.87;1.40;;;;;;;12.52;65.64;100453.69;11083141;26;20004;-62
2024/04/09 20:22:33;;;;;;;3.13;0.82;;;;;;;12.57;65.58;100454.16;11071353;26;20069;-62
2024/04/09 20:27:35;;;;;;;4.43;1.33;;;;;;;12.53;65.33;100458.06;11062807;26;20882;-61
2024/04/09 20:32:37;;;;;;;4.75;0.80;;;;;;;12.40;65.32;100457.41;11032966;26;20004;-62
2024/04/09 20:37:39;;;;;;;2.60;0.88;;;;;;;12.25;65.86;100463.09;11037230;26;20431;-62
2024/04/09 20:42:41;;;;;;;3.47;1.50;;;;;;;12.17;65.92;100465.53;11052129;26;20080;-61
2024/04/09 20:47:43;;;;;;;1.45;0.70;;;;;;;12.22;66.34;100481.16;11071882;26;20108;-61
2024/04/09 20:52:45;;;;;;;4.13;1.05;;;;;;;12.25;66.21;100503.13;11071089;26;20009;-62
2024/04/09 20:57:49;;;;;;;1.77;0.60;;;;;;;12.24;66.18;100500.59;11072990;26;20132;-62
2024/04/09 21:02:53;;;;;;;2.92;0.80;;;;;;;12.13;66.03;100490.78;11053979;26;20699;-62
2024/04/09 21:07:54;;;;;;;3.50;0.90;;;;;;;12.15;66.02;100486.19;11086556;26;20469;-62
2024/04/09 21:12:56;;;;;;;2.63;0.60;;;;;;;12.15;64.36;100491.53;11104256;26;20032;-62
2024/04/09 21:17:57;;;;;;;5.65;0.77;;;;;;;12.11;64.17;100498.06;11062859;26;20988;-62
2024/04/09 21:22:59;;;;;;;2.85;0.52;;;;;;;12.09;63.85;100519.56;11059916;26;20011;-61
2024/04/09 21:28:02;;;;;;;2.45;0.88;;;;;;;12.05;63.51;100522.59;11045465;26;20817;-61
2024/04/09 21:33:07;;;;;;;2.10;0.70;;;;;;;11.96;62.39;100486.84;11054752;26;20019;-61
2024/04/09 21:38:12;;;;;;;4.60;0.98;;;;;;;12.11;61.93;100522.09;10974091;26;20008;-61
2024/04/09 21:43:14;;;;;;;1.88;0.68;;;;;;;12.14;61.20;100553.84;11000039;26;20001;-62
2024/04/09 21:48:16;;;;;;;1.45;0.68;;;;;;;12.07;60.65;100560.66;10962980;26;20028;-62
2024/04/09 21:53:19;;;;;;;3.92;0.80;;;;;;;12.08;59.99;100567.72;11001371;26;20009;-62
2024/04/09 21:58:22;;;;;;;2.25;0.60;;;;;;;11.96;60.08;100577.56;11002984;26;20005;-61
2024/04/09 22:03:24;;;;;;;2.08;0.55;;;;;;;11.80;60.13;100589.44;11051942;26;20000;-62
2024/04/09 22:08:26;;;;;;;2.08;0.75;;;;;;;11.65;59.72;100586.19;11066840;26;20059;-61
2024/04/09 22:13:27;;;;;;;3.58;0.32;;;;;;;11.57;60.23;100577.94;11061159;26;20008;-62
2024/04/09 22:18:30;;;;;;;2.03;0.43;;;;;;;11.71;60.01;100590.19;11058395;26;20004;-62
2024/04/09 22:23:32;;;;;;;1.48;0.35;;;;;;;11.82;59.38;100619.50;11083918;26;20015;-61
2024/04/09 22:28:34;;;;;;;3.47;0.50;;;;;;;11.86;58.98;100630.78;10960038;26;20015;-61
2024/04/09 22:33:36;;;;;;;2.75;0.50;;;;;;;11.77;59.17;100631.50;11026720;26;20795;-62
2024/04/09 22:38:38;;;;;;;3.47;0.55;;;;;;;11.76;59.43;100632.47;11056718;26;20085;-61
2024/04/09 22:43:39;;;;;;;3.95;0.60;;;;;;;11.70;59.27;100638.31;11076453;26;20004;-61
2024/04/09 22:48:42;;;;;;;4.50;1.67;;;;;;;11.62;59.29;100634.41;11053506;26;20040;-61
2024/04/09 22:53:44;;;;;;;1.80;0.47;;;;;;;11.73;58.96;100654.06;11057365;26;20385;-62
2024/04/09 22:58:45;;;;;;;2.15;0.30;;;;;;;11.62;59.55;100654.88;11053592;26;20027;-62
2024/04/09 23:03:47;;;;;;;2.53;0.30;;;;;;;11.51;59.79;100655.72;11059331;26;20772;-61
2024/04/09 23:08:51;;;;;;;1.42;0.45;;;;;;;11.58;59.77;100648.97;11052295;26;20066;-61
2024/04/09 23:13:52;;;;;;;2.70;0.50;;;;;;;11.44;59.74;100642.03;11072229;26;20009;-62
2024/04/09 23:18:54;;;;;;;2.72;0.40;;;;;;;11.51;60.62;100653.06;11075742;26;20448;-63